Time;durP1;ratioP1;P1;durP2;ratioP2;P2;SDS_P1;SDS_P2;PMS_P1;PMS_P2;Temp;Humidity;BMP_temperature;BMP_pressure;BME280_temperature;BME280_humidity;BME280_pressure;Samples;Min_cycle;Max_cycle;Signal;HPM_P1;HPM_P2
2021/12/07 00:01:38;;;;;;;10.07;6.10;;;1.50;99.90;;;;;;5008199;28;20382;-80
2021/12/07 00:04:05;;;;;;;10.90;6.50;;;1.50;99.90;;;;;;5005394;28;20052;-80
2021/12/07 00:06:31;;;;;;;11.45;6.50;;;1.50;99.90;;;;;;5008786;28;20049;-80
2021/12/07 00:08:57;;;;;;;;;;;1.50;99.90;;;;;;5005506;28;20123;-82
2021/12/07 00:11:24;;;;;;;9.77;5.97;;;1.60;99.90;;;;;;5026339;28;19929;-80
2021/12/07 00:16:21;;;;;;;8.35;5.13;;;1.60;99.90;;;;;;5042837;28;20048;-81
2021/12/07 00:18:50;;;;;;;8.73;4.50;;;1.70;99.90;;;;;;5030444;28;20067;-80
2021/12/07 00:21:20;;;;;;;7.40;4.63;;;1.50;99.90;;;;;;5046016;28;20128;-80
2021/12/07 00:23:48;;;;;;;7.85;4.18;;;1.50;99.90;;;;;;5045630;28;20049;-80
2021/12/07 00:26:14;;;;;;;8.68;5.10;;;1.30;99.90;;;;;;5046473;28;20044;-80
2021/12/07 00:28:41;;;;;;;9.43;5.50;;;1.40;99.90;;;;;;5065712;28;20086;-81
2021/12/07 00:31:14;;;;;;;7.47;4.18;;;1.30;99.90;;;;;;5047611;28;20040;-80
2021/12/07 00:33:50;;;;;;;8.30;5.43;;;1.30;99.90;;;;;;5046233;28;20052;-80
2021/12/07 00:36:16;;;;;;;9.98;5.40;;;1.30;99.90;;;;;;5047187;28;20075;-80
2021/12/07 00:38:42;;;;;;;10.02;5.55;;;1.30;99.90;;;;;;5043030;28;20128;-80
2021/12/07 00:41:08;;;;;;;;;;;1.10;99.90;;;;;;5046716;28;20467;-81
2021/12/07 00:43:34;;;;;;;9.50;5.80;;;1.00;99.90;;;;;;5045337;28;19921;-81
2021/12/07 00:46:01;;;;;;;;;;;1.00;99.90;;;;;;5063097;28;20055;-81
2021/12/07 00:48:28;;;;;;;9.45;5.32;;;1.00;99.90;;;;;;5043845;28;19924;-81
2021/12/07 00:50:59;;;;;;;9.02;5.03;;;1.00;99.90;;;;;;5047075;28;20040;-79
2021/12/07 00:53:27;;;;;;;8.82;5.40;;;1.00;99.90;;;;;;5057966;28;20102;-80
2021/12/07 00:55:59;;;;;;;9.45;5.53;;;1.00;99.90;;;;;;5047882;28;20043;-81
2021/12/07 00:58:26;;;;;;;8.27;5.00;;;1.00;99.90;;;;;;5040194;28;20077;-80
2021/12/07 01:01:13;;;;;;;9.25;5.47;;;1.00;99.90;;;;;;5046736;28;20080;-81
2021/12/07 01:03:45;;;;;;;7.60;5.00;;;0.90;99.90;;;;;;5046004;28;20056;-81
2021/12/07 01:07:00;;;;;;;6.38;4.22;;;0.90;99.90;;;;;;5044084;28;20040;-81
2021/12/07 01:09:34;;;;;;;7.93;4.60;;;1.10;99.90;;;;;;5046281;28;20072;-81
2021/12/07 01:25:50;;;;;;;7.18;4.50;;;1.30;99.90;;;;;;5040191;28;20457;-81
2021/12/07 01:28:39;;;;;;;8.77;4.63;;;1.40;99.90;;;;;;5057308;28;20090;-82
2021/12/07 01:31:17;;;;;;;9.32;5.18;;;1.40;99.90;;;;;;5047002;28;20036;-82
2021/12/07 01:34:02;;;;;;;8.40;5.13;;;1.30;99.90;;;;;;5043661;28;20041;-82
2021/12/07 01:42:52;;;;;;;8.80;5.43;;;1.50;99.90;;;;;;5045607;28;20052;-83
2021/12/07 01:50:40;;;;;;;9.35;5.60;;;1.40;99.90;;;;;;4994537;28;20451;-83
2021/12/07 02:01:05;;;;;;;10.32;6.75;;;1.00;99.90;;;;;;5021768;28;20072;-81
2021/12/07 02:03:31;;;;;;;9.73;5.65;;;1.30;99.90;;;;;;5003246;28;20100;-81
2021/12/07 02:05:56;;;;;;;;;;;1.30;99.90;;;;;;5005379;28;20502;-81
2021/12/07 02:08:25;;;;;;;10.63;5.63;;;1.30;99.90;;;;;;5003576;28;19937;-79
2021/12/07 02:10:55;;;;;;;9.15;5.47;;;1.40;99.90;;;;;;5004813;28;20041;-80
2021/12/07 02:15:56;;;;;;;9.88;6.00;;;1.30;99.90;;;;;;5007116;28;20538;-81
2021/12/07 02:18:21;;;;;;;11.00;6.57;;;1.30;99.90;;;;;;5005484;28;20056;-81
2021/12/07 02:20:47;;;;;;;;;;;1.40;99.90;;;;;;5004315;28;20038;-82
2021/12/07 02:23:13;;;;;;;9.15;6.00;;;1.40;99.90;;;;;;5005716;28;19921;-82
2021/12/07 02:25:39;;;;;;;;;;;1.40;99.90;;;;;;5003890;28;20045;-82
2021/12/07 02:28:12;;;;;;;9.52;5.60;;;1.40;99.90;;;;;;5006556;28;19921;-81
2021/12/07 02:30:39;;;;;;;9.70;5.78;;;1.40;99.90;;;;;;5016627;28;20070;-82
2021/12/07 02:33:04;;;;;;;11.10;6.45;;;1.30;99.90;;;;;;5001856;28;20045;-82
2021/12/07 02:35:30;;;;;;;;;;;1.30;99.90;;;;;;5003620;28;20065;-82
2021/12/07 02:37:58;;;;;;;11.32;6.00;;;1.40;99.90;;;;;;5001559;28;19976;-81
2021/12/07 02:40:27;;;;;;;9.90;5.80;;;1.40;99.90;;;;;;5005348;28;20473;-82
2021/12/07 02:42:53;;;;;;;10.65;6.03;;;1.30;99.90;;;;;;5004556;28;20038;-81
2021/12/07 02:45:20;;;;;;;;;;;1.20;99.90;;;;;;5000856;28;20460;-81
2021/12/07 02:47:45;;;;;;;;;;;1.10;99.90;;;;;;5000291;28;19965;-82
2021/12/07 02:50:12;;;;;;;10.77;5.95;;;0.70;99.90;;;;;;5022693;28;19971;-82
2021/12/07 02:52:38;;;;;;;9.70;6.00;;;1.10;99.90;;;;;;5002489;28;20092;-82
2021/12/07 02:55:05;;;;;;;;;;;1.20;99.90;;;;;;5006988;28;20093;-83
2021/12/07 02:57:31;;;;;;;9.35;5.82;;;1.30;99.90;;;;;;4998108;28;19925;-83
2021/12/07 03:00:02;;;;;;;;;;;1.40;99.90;;;;;;5023993;28;20052;-82
2021/12/07 03:02:30;;;;;;;11.35;6.18;;;1.40;99.90;;;;;;5023951;28;19926;-82
2021/12/07 03:05:04;;;;;;;10.40;6.40;;;1.40;99.90;;;;;;5005137;28;20053;-82
2021/12/07 03:27:10;;;;;;;11.18;5.75;;;1.50;99.90;;;;;;5000924;28;20038;-82
2021/12/07 03:29:35;;;;;;;;;;;1.50;99.90;;;;;;5007344;28;20052;-82
2021/12/07 03:32:04;;;;;;;9.48;5.00;;;1.40;99.90;;;;;;5029383;28;19928;-83
2021/12/07 03:34:30;;;;;;;11.63;5.80;;;1.40;99.90;;;;;;5020567;28;20068;-82
2021/12/07 03:36:55;;;;;;;;;;;1.50;99.90;;;;;;5004736;28;20506;-83
2021/12/07 03:39:21;;;;;;;10.68;4.95;;;1.50;99.90;;;;;;5009017;28;20062;-82
2021/12/07 03:41:47;;;;;;;;;;;1.50;99.90;;;;;;5005322;28;20042;-83
2021/12/07 03:44:12;;;;;;;9.93;5.50;;;1.50;99.90;;;;;;5003159;28;20317;-83
2021/12/07 03:46:38;;;;;;;;;;;1.40;99.90;;;;;;5006390;28;20073;-83
2021/12/07 03:49:03;;;;;;;9.38;5.28;;;1.40;99.90;;;;;;5006693;28;19928;-82
2021/12/07 03:51:29;;;;;;;;;;;1.40;99.90;;;;;;5008576;28;20041;-82
2021/12/07 03:53:55;;;;;;;7.90;4.13;;;1.40;99.90;;;;;;5023217;28;19929;-82
2021/12/07 03:56:21;;;;;;;;;;;1.40;99.90;;;;;;5019998;28;20049;-82
2021/12/07 03:58:46;;;;;;;9.25;4.25;;;1.50;99.90;;;;;;5008683;28;20365;-83
2021/12/07 04:01:12;;;;;;;;;;;1.60;99.90;;;;;;5023441;28;20039;-82
2021/12/07 04:03:40;;;;;;;7.88;3.38;;;1.60;99.90;;;;;;5025526;28;20377;-82
2021/12/07 04:06:07;;;;;;;8.40;3.92;;;1.70;99.90;;;;;;5007060;28;20120;-82
2021/12/07 04:08:37;;;;;;;8.63;3.75;;;1.70;99.90;;;;;;5026271;28;20399;-82
2021/12/07 04:11:03;;;;;;;9.68;2.80;;;1.60;99.90;;;;;;5161091;22;20533;-83
2021/12/07 04:13:29;;;;;;;8.05;2.65;;;1.70;99.90;;;;;;5027913;28;20068;-81
2021/12/07 04:15:55;;;;;;;;;;;1.70;99.90;;;;;;5025351;28;20045;-81
2021/12/07 04:18:21;;;;;;;5.78;2.53;;;1.70;99.90;;;;;;5023896;28;19928;-82
2021/12/07 04:20:46;;;;;;;;;;;1.70;99.90;;;;;;5026568;28;20056;-81
2021/12/07 04:23:13;;;;;;;6.15;1.60;;;1.70;99.90;;;;;;5023469;28;19921;-81
2021/12/07 04:25:47;;;;;;;5.03;1.75;;;1.80;99.90;;;;;;5027601;28;20064;-81
2021/12/07 04:28:13;;;;;;;4.05;1.35;;;1.80;99.90;;;;;;5043070;28;20041;-81
2021/12/07 04:30:40;;;;;;;;;;;1.90;99.90;;;;;;5043782;28;20041;-82
2021/12/07 04:33:08;;;;;;;4.55;1.15;;;1.90;99.90;;;;;;5046195;28;19939;-81
2021/12/07 04:35:35;;;;;;;4.35;1.30;;;1.90;99.90;;;;;;5023766;28;20073;-81
2021/12/07 04:38:00;;;;;;;3.35;1.10;;;1.90;99.90;;;;;;5040623;28;20043;-82
2021/12/07 04:40:27;;;;;;;;;;;1.90;99.90;;;;;;5027994;28;20053;-82
2021/12/07 04:42:54;;;;;;;3.35;1.10;;;1.90;99.90;;;;;;5023080;28;19948;-81
2021/12/07 04:46:11;;;;;;;5.38;1.38;;;1.90;99.90;;;;;;5023107;28;20064;-81
2021/12/07 04:58:41;;;;;;;7.43;1.42;;;1.90;99.90;;;;;;4997715;28;20060;-82
2021/12/07 05:01:10;;;;;;;4.50;1.35;;;2.00;99.90;;;;;;5043824;28;20048;-82
2021/12/07 05:03:42;;;;;;;7.43;1.60;;;3.30;99.90;;;;;;5025614;28;20498;-82
2021/12/07 05:06:09;;;;;;;3.28;1.75;;;2.20;99.90;;;;;;5041306;28;20487;-83
2021/12/07 05:08:44;;;;;;;5.18;1.75;;;2.40;99.90;;;;;;5045177;28;20076;-86
2021/12/07 05:13:51;;;;;;;5.43;1.38;;;2.30;99.90;;;;;;5044373;28;20382;-82
2021/12/07 05:24:24;;;;;;;4.93;1.30;;;2.20;99.90;;;;;;5041342;28;20121;-84
2021/12/07 05:37:58;;;;;;;8.10;1.75;;;2.20;99.90;;;;;;5036404;28;20046;-86
2021/12/07 05:40:35;;;;;;;6.05;1.65;;;2.20;99.90;;;;;;5031394;28;20124;-87
2021/12/07 05:43:02;;;;;;;6.53;1.65;;;2.20;99.90;;;;;;5042291;28;20041;-85
2021/12/07 05:47:58;;;;;;;4.45;1.40;;;2.10;99.90;;;;;;5016896;28;20456;-90
2021/12/07 05:50:27;;;;;;;4.10;1.38;;;2.10;99.90;;;;;;4997969;28;20453;-91
2021/12/07 05:52:53;;;;;;;8.10;2.42;;;2.00;99.90;;;;;;5007238;28;20689;-87
2021/12/07 05:55:19;;;;;;;8.40;1.98;;;2.10;99.90;;;;;;5020176;28;20042;-88
2021/12/07 05:57:44;;;;;;;;;;;2.10;99.90;;;;;;5034189;28;20140;-89
2021/12/07 06:00:17;;;;;;;4.57;1.60;;;2.00;99.90;;;;;;5007243;28;19925;-84
2021/12/07 06:02:42;;;;;;;6.35;1.73;;;2.00;99.90;;;;;;5007391;28;20053;-88
2021/12/07 06:05:09;;;;;;;;;;;1.90;99.90;;;;;;5021769;28;20538;-80
2021/12/07 06:07:34;;;;;;;4.15;1.63;;;1.70;99.90;;;;;;5021227;28;19921;-94
2021/12/07 06:10:00;;;;;;;;;;;1.90;99.90;;;;;;5035114;28;20045;-91
2021/12/07 06:12:26;;;;;;;8.50;1.98;;;1.90;99.90;;;;;;5016872;28;20027;-90
2021/12/07 06:14:55;;;;;;;;;;;1.90;99.90;;;;;;5007405;28;20056;-85
2021/12/07 06:17:30;;;;;;;6.38;1.83;;;2.00;99.90;;;;;;5022618;28;19929;-81
2021/12/07 06:19:56;;;;;;;5.78;1.77;;;2.00;99.90;;;;;;5003696;28;20500;-90
2021/12/07 06:22:21;;;;;;;;;;;2.10;99.90;;;;;;5006262;28;20124;-90
2021/12/07 06:24:47;;;;;;;7.57;2.00;;;2.10;99.90;;;;;;5002651;28;19921;-95
2021/12/07 06:27:13;;;;;;;;;;;2.00;99.90;;;;;;5007779;28;20084;-84
2021/12/07 06:29:38;;;;;;;7.03;1.63;;;2.10;99.90;;;;;;5006252;28;19921;-79
2021/12/07 06:32:04;;;;;;;;;;;2.10;99.90;;;;;;5009477;28;20041;-88
2021/12/07 06:34:31;;;;;;;5.07;1.45;;;2.00;99.90;;;;;;5007337;28;19928;-92
2021/12/07 06:36:57;;;;;;;8.82;1.70;;;2.00;99.90;;;;;;5026135;28;20490;-87
2021/12/07 06:39:23;;;;;;;8.13;1.85;;;2.00;99.90;;;;;;5004990;28;20049;-87
2021/12/07 06:41:49;;;;;;;;;;;2.00;99.90;;;;;;5004521;28;20505;-87
2021/12/07 06:44:17;;;;;;;6.07;1.88;;;2.00;99.90;;;;;;5003546;28;19956;-82
2021/12/07 06:46:44;;;;;;;6.07;1.80;;;1.90;99.90;;;;;;5023540;28;20103;-85
2021/12/07 06:49:12;;;;;;;7.53;1.40;;;1.90;99.90;;;;;;5007209;28;20066;-89
2021/12/07 06:51:38;;;;;;;6.78;1.92;;;1.90;99.90;;;;;;5006974;28;20092;-80
2021/12/07 06:54:03;;;;;;;;;;;1.80;99.90;;;;;;5023679;28;20412;-87
2021/12/07 06:56:29;;;;;;;6.70;1.45;;;1.80;99.90;;;;;;5000129;28;19932;-89
2021/12/07 06:58:54;;;;;;;;;;;1.90;99.90;;;;;;5009520;28;20049;-89
2021/12/07 07:01:20;;;;;;;6.25;1.50;;;1.90;99.90;;;;;;5015543;28;19928;-91
2021/12/07 07:03:46;;;;;;;;;;;1.90;99.90;;;;;;5009515;28;20042;-91
2021/12/07 07:06:11;;;;;;;5.18;1.65;;;1.90;99.90;;;;;;5008488;28;20392;-90
2021/12/07 07:08:40;;;;;;;;;;;1.90;99.90;;;;;;5023120;28;20046;-94
2021/12/07 07:11:06;;;;;;;5.50;1.63;;;2.20;99.90;;;;;;5020437;28;19920;-91
2021/12/07 07:13:32;;;;;;;;;;;2.00;99.90;;;;;;5021223;28;20028;-94
2021/12/07 07:15:58;;;;;;;5.90;1.50;;;2.10;99.90;;;;;;5031370;28;19932;-92
2021/12/07 07:18:24;;;;;;;5.72;1.45;;;2.20;99.90;;;;;;5019315;28;20034;-94
2021/12/07 07:20:50;;;;;;;;;;;2.30;99.90;;;;;;5014562;28;20046;-95
2021/12/07 07:23:16;;;;;;;9.50;1.52;;;2.40;99.90;;;;;;5020075;28;20337;-92
2021/12/07 07:25:41;;;;;;;;;;;2.40;99.90;;;;;;5016290;28;20038;-82
2021/12/07 07:28:07;;;;;;;8.82;1.90;;;2.40;99.90;;;;;;5012818;28;19921;-91
2021/12/07 07:30:32;;;;;;;;;;;2.40;99.90;;;;;;5014166;28;20041;-80
2021/12/07 07:32:58;;;;;;;8.52;1.55;;;2.40;99.90;;;;;;5033555;28;19921;-89
2021/12/07 07:35:23;;;;;;;;;;;2.40;99.90;;;;;;5007146;28;20041;-80
2021/12/07 07:37:50;;;;;;;5.68;1.80;;;2.40;99.90;;;;;;5032478;28;19928;-79
2021/12/07 07:40:18;;;;;;;7.38;1.85;;;2.30;99.90;;;;;;5024537;28;20110;-82
2021/12/07 07:42:44;;;;;;;6.05;1.60;;;2.40;99.90;;;;;;5010774;28;20041;-86
2021/12/07 07:45:10;;;;;;;6.13;1.75;;;2.30;99.90;;;;;;5006450;28;20041;-87
2021/12/07 07:47:37;;;;;;;6.03;1.88;;;2.30;99.90;;;;;;5006590;28;20089;-87
2021/12/07 07:50:08;;;;;;;9.13;2.30;;;2.20;99.90;;;;;;5023480;28;20046;-80
2021/12/07 07:52:33;;;;;;;6.20;2.28;;;2.10;99.90;;;;;;5009957;28;20065;-82
2021/12/07 07:54:59;;;;;;;;;;;2.10;99.90;;;;;;5004742;28;20037;-86
2021/12/07 07:57:24;;;;;;;12.93;2.92;;;2.00;99.90;;;;;;5007893;28;19935;-80
2021/12/07 07:59:50;;;;;;;;;;;2.00;99.90;;;;;;5023575;28;20041;-79
2021/12/07 08:02:16;;;;;;;7.47;3.20;;;1.90;99.90;;;;;;5007466;28;19963;-81
2021/12/07 08:04:42;;;;;;;;;;;1.90;99.90;;;;;;5005140;28;20072;-79
2021/12/07 08:07:07;;;;;;;11.80;4.70;;;1.90;99.90;;;;;;5008760;28;19929;-80
2021/12/07 08:09:33;;;;;;;;;;;2.00;99.90;;;;;;5012634;28;20393;-90
2021/12/07 08:11:58;;;;;;;9.30;2.38;;;2.00;99.90;;;;;;5013060;28;19976;-90
2021/12/07 08:14:25;;;;;;;;;;;2.00;99.90;;;;;;5012243;28;20124;-92
2021/12/07 08:16:50;;;;;;;8.70;2.55;;;2.00;99.90;;;;;;5010933;28;19981;-91
2021/12/07 08:19:16;;;;;;;;;;;2.00;99.90;;;;;;5002609;28;20100;-90
2021/12/07 08:21:41;;;;;;;8.98;1.90;;;2.00;99.90;;;;;;5002902;28;20399;-95
2021/12/07 08:24:10;;;;;;;7.57;2.00;;;2.10;99.90;;;;;;5034764;28;20045;-89
2021/12/07 08:26:35;;;;;;;;;;;2.20;99.90;;;;;;5012794;28;20044;-86
2021/12/07 08:29:04;;;;;;;4.55;2.10;;;2.60;99.90;;;;;;5004696;28;20397;-88
2021/12/07 08:31:30;;;;;;;5.85;1.70;;;3.20;99.90;;;;;;5005580;28;20088;-86
2021/12/07 08:33:55;;;;;;;;;;;3.80;99.90;;;;;;5007167;28;20070;-85
2021/12/07 08:36:24;;;;;;;5.28;1.80;;;4.30;99.90;;;;;;5005640;28;19921;-85
2021/12/07 08:38:50;;;;;;;5.80;1.83;;;4.70;99.90;;;;;;5012398;23;20465;-84
2021/12/07 08:41:16;;;;;;;;;;;4.90;99.90;;;;;;5008181;28;20054;-83
2021/12/07 08:43:42;;;;;;;6.25;2.50;;;5.00;99.90;;;;;;5007552;28;19979;-84
2021/12/07 08:46:09;;;;;;;;;;;5.00;99.90;;;;;;5007538;28;20481;-82
2021/12/07 08:48:35;;;;;;;5.63;1.90;;;4.90;99.90;;;;;;5005592;28;19956;-87
2021/12/07 08:51:03;;;;;;;10.50;2.10;;;5.00;99.90;;;;;;5007241;28;20037;-86
2021/12/07 08:53:29;;;;;;;5.22;2.10;;;4.90;99.90;;;;;;5004283;28;20441;-85
2021/12/07 09:01:34;;;;;;;;;;;6.90;99.90;;;;;;5004339;28;20076;-83
2021/12/07 09:04:10;;;;;;;4.60;2.05;;;7.50;99.90;;;;;;5025227;28;19971;-85
2021/12/07 09:06:37;;;;;;;5.47;2.30;;;9.30;99.90;;;;;;5001316;28;20084;-80
2021/12/07 09:09:03;;;;;;;6.55;1.67;;;8.80;99.90;;;;;;5005702;28;20440;-74
2021/12/07 09:11:29;;;;;;;;;;;9.50;99.90;;;;;;5006691;28;20392;-75
2021/12/07 09:13:55;;;;;;;6.32;1.98;;;9.90;99.90;;;;;;5004563;28;19921;-78
2021/12/07 09:16:21;;;;;;;;;;;10.40;99.90;;;;;;5023183;28;20072;-79
2021/12/07 09:18:47;;;;;;;5.68;1.98;;;11.00;99.90;;;;;;5023057;28;19967;-81
2021/12/07 09:21:12;;;;;;;;;;;11.20;99.90;;;;;;5023256;28;20045;-79
2021/12/07 09:23:38;;;;;;;8.50;1.77;;;10.10;99.90;;;;;;5022597;28;20473;-81
2021/12/07 09:26:04;;;;;;;;;;;9.10;99.90;;;;;;5005355;28;20049;-80
2021/12/07 09:28:30;;;;;;;6.18;1.60;;;7.80;99.90;;;;;;5006930;28;19951;-79
2021/12/07 09:30:57;;;;;;;6.15;1.50;;;7.20;99.90;;;;;;5021016;28;20113;-82
2021/12/07 09:33:26;;;;;;;6.95;1.70;;;6.80;99.90;;;;;;5001900;28;20490;-77
2021/12/07 09:35:53;;;;;;;4.55;1.98;;;6.30;99.90;;;;;;5023292;28;20052;-78
2021/12/07 09:38:19;;;;;;;4.55;1.60;;;6.00;99.90;;;;;;5008966;28;20085;-78
2021/12/07 09:40:46;;;;;;;6.82;1.70;;;5.70;99.90;;;;;;5005919;28;20129;-80
2021/12/07 09:43:13;;;;;;;6.18;2.78;;;5.40;99.90;;;;;;5004465;28;20060;-80
2021/12/07 09:45:41;;;;;;;8.75;2.63;;;5.90;99.90;;;;;;5004280;28;20064;-80
2021/12/07 09:48:11;;;;;;;6.82;2.47;;;7.20;99.90;;;;;;5005559;28;20045;-80
2021/12/07 09:50:40;;;;;;;5.63;2.05;;;8.50;99.90;;;;;;5003129;28;20046;-79
2021/12/07 09:53:11;;;;;;;6.03;2.00;;;10.00;99.90;;;;;;5021409;28;20432;-80
2021/12/07 09:55:41;;;;;;;7.90;2.25;;;11.30;99.90;;;;;;5004870;28;20042;-80
2021/12/07 09:58:07;;;;;;;5.30;1.80;;;12.20;99.90;;;;;;5022336;28;20041;-79
2021/12/07 10:00:33;;;;;;;;;;;12.50;99.90;;;;;;5021217;28;20038;-78
2021/12/07 10:02:59;;;;;;;10.20;2.15;;;13.10;99.90;;;;;;5023541;28;19921;-78
2021/12/07 10:05:26;;;;;;;;;;;13.90;99.90;;;;;;5022260;28;20068;-79
2021/12/07 10:07:54;;;;;;;;;;;14.30;99.90;;;;;;5004944;28;19920;-77
2021/12/07 10:10:33;;;;;;;7.72;2.17;;;14.20;99.90;;;;;;5000413;28;19988;-78
2021/12/07 10:13:02;;;;;;;7.10;1.77;;;14.30;99.90;;;;;;5001179;28;20137;-78
2021/12/07 10:15:30;;;;;;;7.00;2.10;;;14.90;99.90;;;;;;5004289;28;20060;-79
2021/12/07 10:18:05;;;;;;;6.53;1.73;;;14.70;99.90;;;;;;5020889;28;20104;-82
2021/12/07 10:20:48;;;;;;;6.28;2.17;;;15.30;99.90;;;;;;5001480;28;20600;-83
2021/12/07 10:23:59;;;;;;;7.30;1.95;;;15.00;99.40;;;;;;5005227;28;20049;-81
2021/12/07 10:27:10;;;;;;;7.13;2.05;;;15.30;99.90;;;;;;5000858;28;20057;-80
2021/12/07 10:29:39;;;;;;;6.15;2.00;;;15.00;99.90;;;;;;4930564;28;20052;-79
2021/12/07 10:32:07;;;;;;;6.28;2.20;;;15.50;99.90;;;;;;4985556;28;20053;-80
2021/12/07 10:34:40;;;;;;;6.32;1.90;;;15.50;99.30;;;;;;4982911;28;20046;-80
2021/12/07 10:37:08;;;;;;;5.53;2.00;;;15.60;99.40;;;;;;4984595;28;20129;-80
2021/12/07 10:39:44;;;;;;;4.30;1.60;;;16.00;99.90;;;;;;4986115;28;20063;-78
2021/12/07 10:42:22;;;;;;;6.45;1.88;;;16.20;98.40;;;;;;4981477;28;20125;-79
2021/12/07 10:44:48;;;;;;;6.82;1.90;;;15.90;98.00;;;;;;4985096;28;20053;-78
2021/12/07 10:47:16;;;;;;;5.07;1.80;;;15.50;97.50;;;;;;4982386;28;20054;-78
2021/12/07 10:49:46;;;;;;;4.53;1.70;;;15.80;98.80;;;;;;4981541;28;20576;-79
2021/12/07 10:52:15;;;;;;;6.75;1.70;;;15.50;99.20;;;;;;4985271;28;20104;-79
2021/12/07 10:54:53;;;;;;;8.05;2.00;;;15.30;98.30;;;;;;4982210;28;20158;-79
2021/12/07 10:57:22;;;;;;;9.93;2.30;;;16.80;98.80;;;;;;4997263;28;20141;-79
2021/12/07 11:00:15;;;;;;;6.00;2.00;;;15.20;98.60;;;;;;5026242;28;20120;-79
2021/12/07 11:02:43;;;;;;;6.72;1.83;;;13.30;99.90;;;;;;5010762;28;20053;-80
2021/12/07 11:05:15;;;;;;;8.32;2.40;;;12.40;99.90;;;;;;5038952;28;20107;-80
2021/12/07 11:07:41;;;;;;;6.35;2.10;;;11.50;99.90;;;;;;5017690;28;20069;-82
2021/12/07 11:10:21;;;;;;;5.65;2.33;;;10.50;99.90;;;;;;5024737;28;20060;-80
2021/12/07 11:13:01;;;;;;;5.82;1.98;;;10.00;99.90;;;;;;5037261;28;20046;-80
2021/12/07 11:15:29;;;;;;;7.72;2.30;;;9.70;99.90;;;;;;5022980;28;20048;-82
2021/12/07 11:18:06;;;;;;;6.35;2.03;;;9.40;99.90;;;;;;5028075;28;20045;-83
2021/12/07 11:20:33;;;;;;;5.13;1.65;;;9.90;99.90;;;;;;5025417;28;20107;-78
2021/12/07 11:23:11;;;;;;;9.00;2.25;;;9.80;99.90;;;;;;5022554;28;20045;-79
2021/12/07 11:29:40;;;;;;;6.70;2.10;;;9.30;99.90;;;;;;5041452;28;20106;-78
2021/12/07 11:31:37;;;;;;;4.80;1.98;;;8.20;99.90;;;;;;5021849;28;20053;-78
2021/12/07 11:34:15;;;;;;;10.25;2.72;;;8.00;99.90;;;;;;5026439;28;20091;-78
2021/12/07 11:37:02;;;;;;;9.40;2.80;;;7.60;99.90;;;;;;5019416;28;20049;-79
2021/12/07 11:39:36;;;;;;;9.90;2.80;;;7.50;99.90;;;;;;5002939;28;21147;-79
2021/12/07 11:42:16;;;;;;;8.13;2.60;;;7.40;99.90;;;;;;5021676;28;20038;-79
2021/12/07 11:44:52;;;;;;;11.25;2.53;;;7.50;99.90;;;;;;5006137;28;20045;-79
2021/12/07 11:47:59;;;;;;;7.25;2.65;;;8.20;99.90;;;;;;5023000;28;20034;-82
2021/12/07 11:50:31;;;;;;;7.80;2.45;;;8.20;99.90;;;;;;5022330;28;20042;-80
2021/12/07 11:53:03;;;;;;;6.25;2.50;;;8.20;99.90;;;;;;5007849;28;20053;-78
2021/12/07 11:55:31;;;;;;;5.47;2.40;;;8.50;99.90;;;;;;5008835;28;20546;-79
2021/12/07 11:57:57;;;;;;;9.40;3.17;;;9.10;99.90;;;;;;5008975;28;20481;-78
2021/12/07 12:00:35;;;;;;;9.07;3.30;;;9.70;99.90;;;;;;5023304;28;20568;-77
2021/12/07 12:03:09;;;;;;;6.85;2.83;;;10.40;99.90;;;;;;5015048;28;20099;-77
2021/12/07 12:05:42;;;;;;;8.93;2.67;;;11.00;99.90;;;;;;5003360;28;20115;-79
2021/12/07 12:08:09;;;;;;;7.22;2.95;;;11.30;99.90;;;;;;5007460;28;20041;-79
2021/12/07 12:10:41;;;;;;;4.80;2.25;;;12.00;99.90;;;;;;5023477;28;20096;-87
2021/12/07 12:13:40;;;;;;;8.65;2.65;;;11.60;99.90;;;;;;5008354;28;20056;-88
2021/12/07 12:20:31;;;;;;;6.97;2.63;;;11.60;99.90;;;;;;4985890;28;20528;-84
2021/12/07 12:23:11;;;;;;;5.47;2.15;;;11.40;99.90;;;;;;4981431;28;20352;-82
2021/12/07 12:25:37;;;;;;;6.93;2.20;;;11.10;99.90;;;;;;4985617;28;20047;-85
2021/12/07 12:28:03;;;;;;;;;;;11.80;99.90;;;;;;4965015;28;20043;-85
2021/12/07 12:30:37;;;;;;;7.68;2.50;;;10.90;99.90;;;;;;4988056;28;19925;-85
2021/12/07 12:33:11;;;;;;;9.15;2.33;;;10.60;99.90;;;;;;5022318;28;20051;-80
2021/12/07 12:35:43;;;;;;;8.88;2.50;;;10.40;99.90;;;;;;5005560;28;20050;-80
2021/12/07 12:38:24;;;;;;;6.85;2.58;;;10.40;99.90;;;;;;5005994;28;20049;-86
2021/12/07 12:40:58;;;;;;;8.25;2.15;;;10.30;99.90;;;;;;5025992;28;20050;-79
2021/12/07 12:43:53;;;;;;;6.97;2.10;;;10.20;99.90;;;;;;5007585;28;20065;-77
2021/12/07 12:46:27;;;;;;;7.47;2.63;;;10.00;99.90;;;;;;5005834;28;20042;-79
2021/12/07 12:48:58;;;;;;;8.25;2.50;;;9.60;99.90;;;;;;5015220;28;20065;-76
2021/12/07 12:51:30;;;;;;;7.78;2.60;;;9.50;99.90;;;;;;5021592;28;20038;-77
2021/12/07 12:53:58;;;;;;;11.05;3.13;;;9.20;99.90;;;;;;5001514;28;20060;-77
2021/12/07 12:56:30;;;;;;;6.97;2.22;;;9.00;99.90;;;;;;4999011;28;20078;-80
2021/12/07 12:59:02;;;;;;;9.38;2.22;;;8.70;99.90;;;;;;5004313;28;20053;-78
2021/12/07 13:01:36;;;;;;;8.95;2.45;;;8.60;99.90;;;;;;5004424;28;20055;-79
2021/12/07 13:04:12;;;;;;;6.88;2.40;;;8.40;99.90;;;;;;5002778;28;20452;-83
2021/12/07 13:06:43;;;;;;;;;;;8.10;99.90;;;;;;5009006;28;20120;-88
2021/12/07 13:09:17;;;;;;;9.50;2.55;;;8.20;99.90;;;;;;5005642;28;20381;-83
2021/12/07 13:12:02;;;;;;;8.20;2.28;;;8.10;99.90;;;;;;5009335;28;20045;-87
2021/12/07 13:14:35;;;;;;;9.73;2.17;;;7.80;99.90;;;;;;4998096;28;20049;-84
2021/12/07 13:17:14;;;;;;;6.53;2.33;;;7.60;99.90;;;;;;4997834;28;20060;-87
2021/12/07 13:20:07;;;;;;;7.97;2.53;;;7.80;99.90;;;;;;4996690;28;20128;-85
2021/12/07 13:22:54;;;;;;;11.05;2.88;;;7.80;99.90;;;;;;5003033;28;20053;-84
2021/12/07 13:25:28;;;;;;;8.65;2.75;;;7.60;99.90;;;;;;5018429;28;20041;-85
2021/12/07 13:28:11;;;;;;;7.13;2.33;;;7.50;99.90;;;;;;5001523;28;20088;-85
2021/12/07 13:30:49;;;;;;;7.28;3.03;;;7.30;99.90;;;;;;5007157;28;20045;-78
2021/12/07 13:33:35;;;;;;;9.93;2.92;;;7.20;99.90;;;;;;5004813;28;20037;-80
2021/12/07 13:36:19;;;;;;;5.75;2.50;;;7.10;99.90;;;;;;5001210;28;20050;-79
2021/12/07 13:38:45;;;;;;;5.75;2.30;;;7.00;99.90;;;;;;5000756;28;20058;-79
2021/12/07 13:41:11;;;;;;;;;;;6.80;99.90;;;;;;5025216;28;20409;-79
2021/12/07 13:43:37;;;;;;;5.10;2.20;;;6.80;99.90;;;;;;5007866;28;19921;-81
2021/12/07 13:46:29;;;;;;;10.38;2.40;;;6.60;99.90;;;;;;5028311;28;20493;-81
2021/12/07 13:49:10;;;;;;;6.50;2.10;;;6.60;99.90;;;;;;4995859;28;20057;-80
2021/12/07 13:51:37;;;;;;;10.40;2.30;;;6.30;99.90;;;;;;5005908;28;20050;-80
2021/12/07 13:54:04;;;;;;;58.38;35.40;;;6.20;99.90;;;;;;5008809;28;20041;-80
2021/12/07 13:56:36;;;;;;;101.75;63.40;;;6.10;99.90;;;;;;5024757;28;20084;-87
2021/12/07 13:59:09;;;;;;;59.65;50.28;;;6.10;99.90;;;;;;5005272;28;20607;-81
2021/12/07 14:01:37;;;;;;;9.25;5.22;;;6.00;99.90;;;;;;5003174;28;20107;-87
2021/12/07 14:04:04;;;;;;;9.43;4.13;;;5.90;99.90;;;;;;5009862;28;20558;-79
2021/12/07 14:06:30;;;;;;;17.08;11.38;;;5.90;99.90;;;;;;5007487;28;20402;-81
2021/12/07 14:09:07;;;;;;;;;;;5.90;99.90;;;;;;5009929;28;20034;-84
2021/12/07 14:11:32;;;;;;;22.35;15.10;;;5.80;99.90;;;;;;5010512;28;20312;-78
2021/12/07 14:13:58;;;;;;;;;;;5.70;99.90;;;;;;5025934;28;20038;-88
2021/12/07 14:16:28;;;;;;;9.88;6.25;;;5.60;99.90;;;;;;5001986;28;19928;-84
2021/12/07 14:18:54;;;;;;;9.50;5.35;;;5.70;99.90;;;;;;5006756;28;20048;-89
2021/12/07 14:21:20;;;;;;;;;;;5.50;99.90;;;;;;5003447;28;20045;-79
2021/12/07 14:23:52;;;;;;;8.65;3.20;;;5.50;99.90;;;;;;5009427;28;19928;-79
2021/12/07 14:26:24;;;;;;;10.18;3.60;;;5.50;99.90;;;;;;5006897;28;20543;-77
2021/12/07 14:29:02;;;;;;;12.50;5.35;;;5.30;99.90;;;;;;5019071;28;20042;-81
2021/12/07 14:31:33;;;;;;;21.20;10.73;;;5.30;99.90;;;;;;5008305;28;20573;-82
2021/12/07 14:34:02;;;;;;;30.85;12.52;;;5.30;99.90;;;;;;5015152;28;20061;-76
2021/12/07 14:36:38;;;;;;;27.05;19.23;;;5.30;99.90;;;;;;5007006;28;20046;-79
2021/12/07 14:39:08;;;;;;;8.07;3.15;;;5.20;99.90;;;;;;4983537;28;20058;-77
2021/12/07 14:41:53;;;;;;;15.40;3.60;;;5.20;99.90;;;;;;4993225;28;20058;-80
2021/12/07 14:44:22;;;;;;;10.85;3.92;;;5.10;99.90;;;;;;4990852;28;20471;-77
2021/12/07 14:46:50;;;;;;;7.35;3.70;;;5.10;99.90;;;;;;4991373;28;20402;-79
2021/12/07 14:49:16;;;;;;;12.23;3.65;;;5.00;99.90;;;;;;4985910;28;20077;-81
2021/12/07 14:51:43;;;;;;;10.52;3.95;;;4.90;99.90;;;;;;4978843;28;20576;-78
2021/12/07 14:54:11;;;;;;;8.98;3.80;;;4.90;99.90;;;;;;4989656;28;20085;-79
2021/12/07 14:56:37;;;;;;;12.82;5.40;;;4.90;99.90;;;;;;5002386;28;20057;-79
2021/12/07 15:18:08;;;;;;;;;;;;;;;;;;;;;
2021/12/07 15:41:10;;;;;;;12.35;4.93;;;4.10;99.90;;;;;;5563480;22;20054;-84
2021/12/07 15:43:44;;;;;;;11.20;5.13;;;4.20;99.90;;;;;;5004702;28;20045;-76
2021/12/07 15:46:18;;;;;;;11.90;5.35;;;4.10;99.90;;;;;;5016103;28;20044;-76
2021/12/07 15:48:45;;;;;;;12.60;5.18;;;4.00;99.90;;;;;;5002240;28;20049;-78
2021/12/07 15:51:12;;;;;;;11.55;5.15;;;3.90;99.90;;;;;;5008128;28;20033;-81